Time;durP1;ratioP1;P1;durP2;ratioP2;P2;SDS_P1;SDS_P2;PMS_P1;PMS_P2;Temp;Humidity;BMP_temperature;BMP_pressure;BME280_temperature;BME280_humidity;BME280_pressure;Samples;Min_cycle;Max_cycle;Signal;HPM_P1;HPM_P2
2021/07/11 00:01:06;;;;;;;5.05;4.60;;;;;;;17.39;66.33;94974.94;5107594;28;20039;-66
2021/07/11 00:03:33;;;;;;;5.63;4.18;;;;;;;17.45;66.68;94993.31;5107413;28;20049;-66
2021/07/11 00:06:00;;;;;;;4.30;3.90;;;;;;;17.38;66.81;94977.84;5107477;28;20035;-66
2021/07/11 00:08:26;;;;;;;8.15;4.10;;;;;;;17.41;67.19;94976.50;5107194;28;20035;-66
2021/07/11 00:10:53;;;;;;;5.40;4.22;;;;;;;17.37;67.18;94990.19;5107229;28;20051;-65
2021/07/11 00:13:20;;;;;;;5.53;4.28;;;;;;;17.26;68.32;94988.66;5107235;28;20036;-65
2021/07/11 00:15:47;;;;;;;5.50;4.50;;;;;;;17.20;67.71;94987.91;5107530;28;20035;-66
2021/07/11 00:18:14;;;;;;;11.25;5.35;;;;;;;17.12;68.58;94982.38;5105226;27;22035;-66
2021/07/11 00:20:41;;;;;;;8.57;4.13;;;;;;;16.94;68.23;94953.00;5107739;27;20390;-66
2021/07/11 00:23:08;;;;;;;6.10;3.97;;;;;;;16.98;69.08;94975.06;5106119;28;20448;-65
2021/07/11 00:25:34;;;;;;;6.03;4.25;;;;;;;16.90;69.48;94978.25;5071839;28;20051;-66
2021/07/11 00:28:01;;;;;;;8.90;4.72;;;;;;;16.85;69.43;94967.72;5107171;28;20035;-66
2021/07/11 00:30:28;;;;;;;8.80;5.05;;;;;;;17.04;69.28;94975.06;5107121;27;20389;-66
2021/07/11 00:32:55;;;;;;;7.63;5.05;;;;;;;17.01;69.09;94973.75;5107084;28;20043;-66
2021/07/11 00:35:22;;;;;;;14.70;4.60;;;;;;;16.97;69.11;94962.97;5107514;28;20043;-66
2021/07/11 00:37:49;;;;;;;7.55;4.78;;;;;;;17.04;69.65;94972.44;5107188;28;20455;-66
2021/07/11 00:40:18;;;;;;;7.35;4.72;;;;;;;16.95;69.99;94970.34;5108747;27;20451;-66
2021/07/11 00:42:46;;;;;;;9.88;4.30;;;;;;;16.88;70.05;94969.84;5088966;28;20071;-66
2021/07/11 00:45:14;;;;;;;10.63;4.75;;;;;;;16.82;70.58;94970.88;5105817;27;20120;-66
2021/07/11 00:47:45;;;;;;;10.07;4.88;;;;;;;16.77;70.62;94970.88;5104951;28;20546;-66
2021/07/11 00:50:15;;;;;;;6.78;5.13;;;;;;;16.66;71.18;94971.97;5106455;27;20035;-66
2021/07/11 00:52:42;;;;;;;11.07;4.97;;;;;;;16.72;71.27;94965.63;5106960;28;20081;-65
2021/07/11 00:55:15;;;;;;;6.70;4.88;;;;;;;16.76;71.12;94964.03;5088169;28;20052;-66
2021/07/11 00:57:42;;;;;;;5.85;4.53;;;;;;;16.79;70.77;94960.88;5089615;28;20046;-66
2021/07/11 01:00:11;;;;;;;9.48;4.60;;;;;;;16.85;70.93;94959.06;5107769;27;20032;-66
2021/07/11 01:03:05;;;;;;;15.63;5.45;;;;;;;16.86;71.27;94950.13;5106407;28;20050;-66
2021/07/11 01:05:34;;;;;;;8.15;5.20;;;;;;;16.86;70.91;94950.91;5106307;28;20039;-65
2021/07/11 01:08:47;;;;;;;7.15;4.75;;;;;;;16.94;70.76;94958.25;5088190;28;20093;-65
2021/07/11 01:11:17;;;;;;;9.52;5.45;;;;;;;16.79;71.62;94961.66;5023586;28;20061;-66
2021/07/11 01:13:46;;;;;;;8.25;5.47;;;;;;;16.83;71.62;94951.44;5023349;28;20057;-66
2021/07/11 01:16:18;;;;;;;9.05;4.85;;;;;;;16.89;71.10;94950.38;5069737;27;20104;-66
2021/07/11 01:18:58;;;;;;;5.28;4.75;;;;;;;17.02;70.58;94956.13;5087520;28;20126;-65
2021/07/11 01:21:27;;;;;;;8.38;5.18;;;;;;;17.02;70.80;94956.13;5087779;28;20048;-65
2021/07/11 01:24:05;;;;;;;13.57;5.53;;;;;;;17.10;70.13;94955.56;5106082;28;20127;-65
2021/07/11 01:26:33;;;;;;;6.67;4.80;;;;;;;17.14;70.43;94952.13;5105108;28;20035;-65
2021/07/11 01:29:04;;;;;;;10.65;4.55;;;;;;;17.06;70.67;94949.28;5087285;28;20043;-65
2021/07/11 01:31:33;;;;;;;7.53;5.10;;;;;;;17.08;70.79;94947.16;5105421;28;20101;-66
2021/07/11 01:34:02;;;;;;;7.32;4.50;;;;;;;17.08;71.01;94953.19;5104841;28;20147;-65
2021/07/11 01:36:30;;;;;;;10.90;5.97;;;;;;;17.11;70.27;94957.94;5107253;27;20118;-65
2021/07/11 01:38:58;;;;;;;11.32;4.63;;;;;;;17.09;70.69;94948.75;5086828;28;20126;-65
2021/07/11 01:41:34;;;;;;;7.07;4.72;;;;;;;16.98;71.24;94943.50;5105014;28;20063;-66
2021/07/11 01:44:05;;;;;;;5.63;4.53;;;;;;;17.00;71.18;94943.25;5087319;28;20513;-66
2021/07/11 01:46:33;;;;;;;16.45;4.60;;;;;;;17.07;70.73;94942.94;5104978;28;20062;-65
2021/07/11 01:49:00;;;;;;;8.85;4.53;;;;;;;17.06;70.78;94938.75;5103934;28;20047;-65
2021/07/11 01:51:29;;;;;;;6.28;4.95;;;;;;;17.01;70.95;94936.91;5105458;28;20066;-65
2021/07/11 01:54:00;;;;;;;6.35;4.65;;;;;;;17.02;71.36;94940.34;5087327;28;20536;-65
2021/07/11 01:56:28;;;;;;;7.57;4.55;;;;;;;17.04;71.26;94946.13;5085868;28;20040;-65
2021/07/11 01:58:56;;;;;;;7.45;4.47;;;;;;;17.05;71.25;94953.75;5086944;28;20042;-65
2021/07/11 02:01:25;;;;;;;10.32;4.72;;;;;;;17.03;71.40;94949.78;5087033;28;20561;-65
2021/07/11 02:04:03;;;;;;;9.27;5.22;;;;;;;17.07;71.11;94945.56;5105467;28;20040;-66
2021/07/11 02:06:35;;;;;;;8.30;4.20;;;;;;;17.09;71.28;94943.47;5105273;28;20043;-65
2021/07/11 02:09:14;;;;;;;5.65;4.97;;;;;;;17.23;70.78;94954.97;5086711;28;20113;-66
2021/07/11 02:11:41;;;;;;;13.50;5.05;;;;;;;17.09;70.96;94951.38;5087231;28;20100;-65
2021/07/11 02:14:17;;;;;;;9.43;4.47;;;;;;;16.99;71.47;94960.84;5088482;28;20044;-66
2021/07/11 02:16:57;;;;;;;4.45;4.00;;;;;;;16.92;71.71;94965.59;5086554;28;20047;-66
2021/07/11 02:19:37;;;;;;;9.25;4.82;;;;;;;16.91;71.82;94953.53;5086458;28;20055;-66
2021/07/11 02:22:06;;;;;;;7.45;4.85;;;;;;;16.95;71.05;94965.06;5086872;28;20458;-66
2021/07/11 02:24:42;;;;;;;7.78;4.95;;;;;;;16.83;71.70;94967.22;5086486;28;20790;-66
2021/07/11 02:27:17;;;;;;;8.43;5.00;;;;;;;16.62;72.20;94961.97;5087447;28;20147;-66
2021/07/11 02:29:46;;;;;;;12.88;5.60;;;;;;;16.58;72.87;94971.44;5105928;28;20741;-66
2021/07/11 02:32:15;;;;;;;11.60;6.00;;;;;;;16.54;73.17;94965.13;5105203;28;20104;-66
2021/07/11 02:34:44;;;;;;;9.27;5.10;;;;;;;16.49;72.98;94962.50;5105371;28;20067;-65
2021/07/11 02:37:17;;;;;;;8.38;4.90;;;;;;;16.56;73.09;94973.53;5086911;28;20036;-65
2021/07/11 02:39:48;;;;;;;7.05;4.80;;;;;;;16.54;73.39;94975.63;5105384;28;20509;-65
2021/07/11 02:42:17;;;;;;;9.45;5.38;;;;;;;16.49;73.58;94962.50;5104192;28;20047;-67
2021/07/11 02:44:47;;;;;;;6.25;5.22;;;;;;;16.46;73.09;94968.28;5105204;28;20040;-66
2021/07/11 02:47:22;;;;;;;9.80;6.10;;;;;;;16.43;73.84;94980.13;5086934;28;20075;-65
2021/07/11 02:49:56;;;;;;;5.88;5.28;;;;;;;16.50;73.42;94985.13;5085192;28;20463;-66
2021/07/11 02:52:24;;;;;;;6.35;5.25;;;;;;;16.48;73.38;94981.97;5086084;28;20067;-65
2021/07/11 02:55:06;;;;;;;9.30;5.47;;;;;;;16.46;73.74;94986.69;5086693;28;20044;-66
2021/07/11 02:57:38;;;;;;;10.18;5.60;;;;;;;16.36;73.76;94978.81;5085810;28;20071;-65
2021/07/11 03:00:07;;;;;;;6.47;5.25;;;;;;;16.25;74.73;94984.06;5108807;28;20578;-65
2021/07/11 03:02:42;;;;;;;9.82;6.20;;;;;;;16.10;74.98;94970.94;5090089;28;20040;-66
2021/07/11 03:05:14;;;;;;;11.23;5.53;;;;;;;16.31;74.16;94987.47;5090215;27;20054;-66
2021/07/11 03:07:42;;;;;;;10.10;6.20;;;;;;;16.37;74.14;94985.66;5091952;28;20116;-66
2021/07/11 03:10:14;;;;;;;9.30;5.40;;;;;;;16.37;74.23;94986.44;5108593;28;20131;-65
2021/07/11 03:12:42;;;;;;;8.07;5.30;;;;;;;16.40;74.10;94990.38;5108774;27;20040;-65
2021/07/11 03:15:10;;;;;;;7.22;5.07;;;;;;;16.43;73.44;94989.84;5090431;27;20484;-66
2021/07/11 03:17:41;;;;;;;7.45;5.55;;;;;;;16.48;73.31;94989.84;5089924;28;20042;-65
2021/07/11 03:20:11;;;;;;;6.60;5.63;;;;;;;16.49;73.19;94994.03;5109866;27;20051;-66
2021/07/11 03:22:42;;;;;;;7.07;5.40;;;;;;;16.40;73.85;94979.84;5108360;27;20408;-66
2021/07/11 03:25:12;;;;;;;6.45;5.07;;;;;;;16.49;73.57;94988.78;5089788;28;20112;-66
2021/07/11 03:27:40;;;;;;;6.30;5.32;;;;;;;16.46;73.82;94993.78;5108210;28;20532;-66
2021/07/11 03:30:12;;;;;;;7.28;5.28;;;;;;;16.39;74.67;94988.81;5106882;27;20075;-66
2021/07/11 03:33:00;;;;;;;8.93;5.28;;;;;;;16.36;75.75;94994.56;5107559;27;20044;-65
2021/07/11 03:35:52;;;;;;;7.70;5.65;;;;;;;16.42;74.67;94977.75;5107753;28;20047;-65
2021/07/11 03:38:26;;;;;;;18.13;6.57;;;;;;;16.62;74.10;94988.25;5090244;28;20052;-65
2021/07/11 03:40:55;;;;;;;7.85;5.90;;;;;;;16.80;73.85;94999.28;5106920;28;20047;-65
2021/07/11 03:43:25;;;;;;;9.65;6.32;;;;;;;16.88;73.25;95001.41;5107162;28;20138;-66
2021/07/11 03:45:55;;;;;;;7.03;5.22;;;;;;;16.91;73.76;95000.09;5107766;28;20386;-65
2021/07/11 03:48:29;;;;;;;17.30;5.80;;;;;;;16.90;73.81;94999.28;5108367;27;20092;-65
2021/07/11 03:51:02;;;;;;;11.27;5.68;;;;;;;16.94;73.78;95005.59;5088450;28;20479;-65
2021/07/11 03:53:33;;;;;;;9.60;5.67;;;;;;;16.96;73.33;94994.78;5106998;27;20059;-66
2021/07/11 03:56:03;;;;;;;10.40;5.88;;;;;;;16.96;73.13;95003.50;5089270;27;20516;-66
2021/07/11 03:58:36;;;;;;;9.27;4.85;;;;;;;17.02;73.50;94998.22;5108043;28;20051;-66
2021/07/11 04:01:05;;;;;;;6.78;5.15;;;;;;;17.00;73.04;94998.50;5107313;27;20448;-65
2021/07/11 04:03:38;;;;;;;7.63;5.35;;;;;;;17.11;73.38;95004.50;5106043;28;20390;-66
2021/07/11 04:06:10;;;;;;;5.90;5.30;;;;;;;17.11;74.10;95000.03;5106923;28;20126;-66
2021/07/11 04:08:38;;;;;;;7.30;5.40;;;;;;;17.18;73.86;95002.38;5106643;27;20044;-66
2021/07/11 04:11:07;;;;;;;9.07;5.53;;;;;;;17.27;73.19;95008.69;5107328;27;20398;-66
2021/07/11 04:13:36;;;;;;;11.45;5.53;;;;;;;17.31;73.04;94999.19;5107551;27;20042;-66
2021/07/11 04:16:06;;;;;;;10.90;5.38;;;;;;;17.44;73.48;95002.28;5107469;28;20092;-65
2021/07/11 04:18:45;;;;;;;7.75;5.20;;;;;;;17.55;72.64;95003.81;5107376;27;20047;-66
2021/07/11 04:21:13;;;;;;;7.20;5.32;;;;;;;17.64;72.76;95007.47;5107083;28;20039;-66
2021/07/11 04:23:40;;;;;;;9.40;5.53;;;;;;;17.71;73.10;95002.69;5108901;27;20040;-66
2021/07/11 04:26:08;;;;;;;11.05;4.97;;;;;;;17.68;72.66;94989.28;5106954;28;20192;-66
2021/07/11 04:28:40;;;;;;;7.78;5.45;;;;;;;17.81;72.46;95016.84;5105709;28;20040;-66
2021/07/11 04:31:07;;;;;;;7.43;5.57;;;;;;;17.91;72.74;95011.56;5106041;27;20183;-66
2021/07/11 04:33:35;;;;;;;6.10;5.50;;;;;;;17.99;71.97;95018.91;5106898;27;20142;-66
2021/07/11 04:36:05;;;;;;;8.82;4.85;;;;;;;18.06;71.23;95014.13;5106720;27;20039;-66
2021/07/11 04:38:32;;;;;;;8.40;4.95;;;;;;;18.20;71.19;95019.56;5105584;28;20084;-66
2021/07/11 04:41:01;;;;;;;8.00;4.90;;;;;;;18.31;70.65;95021.09;5105661;28;20027;-66
2021/07/11 04:43:28;;;;;;;9.93;5.47;;;;;;;18.42;70.26;95016.53;5106936;28;20039;-66
2021/07/11 04:45:55;;;;;;;10.13;5.18;;;;;;;18.53;70.69;95020.66;5108403;27;20054;-66
2021/07/11 04:48:22;;;;;;;13.25;5.57;;;;;;;18.64;70.41;95017.94;5106252;28;20047;-66
2021/07/11 04:50:49;;;;;;;7.07;5.50;;;;;;;18.69;70.27;95015.22;5104619;28;20040;-66
2021/07/11 04:53:16;;;;;;;7.80;5.13;;;;;;;18.84;69.38;95017.78;5106610;28;20043;-66
2021/07/11 04:55:45;;;;;;;11.75;5.22;;;;;;;18.91;68.64;95007.66;5106600;28;20054;-66
2021/07/11 04:58:13;;;;;;;9.68;6.00;;;;;;;19.10;67.71;95020.16;5105518;28;20047;-66
2021/07/11 05:00:40;;;;;;;7.22;5.60;;;;;;;19.19;67.49;95018.47;5105282;28;20032;-66
2021/07/11 05:03:07;;;;;;;6.70;4.15;;;;;;;19.31;68.57;95014.66;5106306;28;20557;-66
2021/07/11 05:05:37;;;;;;;7.50;5.20;;;;;;;19.36;69.18;95017.25;5106097;28;20078;-66
2021/07/11 05:08:04;;;;;;;7.78;5.10;;;;;;;19.31;66.77;95004.09;5106231;28;20454;-66
2021/07/11 05:10:31;;;;;;;10.38;4.55;;;;;;;19.46;66.86;95012.66;5106074;28;20047;-66
2021/07/11 05:12:58;;;;;;;10.13;4.65;;;;;;;19.57;65.66;95018.59;5105974;28;20488;-66
2021/07/11 05:15:25;;;;;;;9.20;5.22;;;;;;;19.66;65.68;95022.19;5106038;28;20118;-66
2021/07/11 05:17:52;;;;;;;8.88;5.50;;;;;;;19.78;66.88;95023.66;5104681;28;20048;-66
2021/07/11 05:20:19;;;;;;;8.50;5.10;;;;;;;19.92;66.21;95023.72;5104379;28;20043;-66
2021/07/11 05:22:45;;;;;;;8.95;5.28;;;;;;;20.05;64.27;95021.16;5103893;28;20048;-66
2021/07/11 05:25:12;;;;;;;10.00;5.20;;;;;;;20.16;65.63;95019.16;5105811;27;20489;-66
2021/07/11 05:27:39;;;;;;;10.68;4.82;;;;;;;20.29;63.69;95022.91;5105005;27;20052;-66
2021/07/11 05:30:06;;;;;;;11.02;4.88;;;;;;;20.32;62.83;95006.50;5105912;27;20045;-66
2021/07/11 05:32:33;;;;;;;12.45;5.13;;;;;;;20.43;62.68;95018.47;5105395;28;20054;-66
2021/07/11 05:35:00;;;;;;;12.30;4.95;;;;;;;20.47;62.11;95023.97;5105705;28;20410;-66
2021/07/11 05:37:27;;;;;;;12.10;4.85;;;;;;;20.65;62.01;95019.75;5105539;28;20573;-66
2021/07/11 05:39:54;;;;;;;8.50;5.40;;;;;;;20.71;60.62;95013.31;5105742;28;20044;-66
2021/07/11 05:42:22;;;;;;;13.38;5.53;;;;;;;20.85;61.55;95013.34;5105466;28;20047;-66
2021/07/11 05:44:49;;;;;;;9.98;5.97;;;;;;;20.80;61.34;95000.97;5105809;28;20436;-67
2021/07/11 05:47:15;;;;;;;11.70;5.30;;;;;;;21.01;60.77;95021.78;5107134;27;20043;-66
2021/07/11 05:49:42;;;;;;;14.95;6.75;;;;;;;21.10;60.23;95020.03;5103334;28;20051;-66
2021/07/11 05:52:09;;;;;;;19.15;7.32;;;;;;;21.14;60.35;95010.44;5105280;28;20048;-66
2021/07/11 05:54:36;;;;;;;14.18;8.18;;;;;;;21.29;59.33;95019.19;5100835;28;20038;-67
2021/07/11 05:57:03;;;;;;;8.82;6.97;;;;;;;21.36;59.30;95009.00;5104727;28;20043;-67
2021/07/11 05:59:33;;;;;;;11.30;5.72;;;;;;;21.48;59.73;95009.31;5103394;28;20096;-67
2021/07/11 06:02:01;;;;;;;10.65;6.65;;;;;;;21.66;59.57;95025.38;5099074;28;20035;-66
2021/07/11 06:04:27;;;;;;;10.15;5.88;;;;;;;21.76;60.01;95020.66;5103131;28;20047;-66
2021/07/11 06:06:54;;;;;;;8.65;5.10;;;;;;;21.87;59.58;95015.91;5104566;28;20743;-66
2021/07/11 06:09:21;;;;;;;9.40;5.13;;;;;;;21.94;60.02;95011.00;5103725;28;20047;-68
2021/07/11 06:11:48;;;;;;;15.95;5.40;;;;;;;22.18;59.01;95017.91;5104866;28;20070;-66
2021/07/11 06:14:15;;;;;;;12.65;5.78;;;;;;;22.37;58.92;95022.31;5103824;28;20066;-67
2021/07/11 06:16:41;;;;;;;10.82;6.35;;;;;;;22.49;58.77;95006.59;5105015;28;20043;-66
2021/07/11 06:19:09;;;;;;;16.38;5.07;;;;;;;22.67;57.10;95016.28;5103471;28;20048;-67
2021/07/11 06:21:35;;;;;;;13.43;6.47;;;;;;;22.81;57.11;95020.72;5105332;28;20039;-67
2021/07/11 06:24:02;;;;;;;9.23;6.18;;;;;;;22.89;56.16;95012.03;5104401;28;20063;-67
2021/07/11 06:26:29;;;;;;;12.25;5.90;;;;;;;23.03;56.34;95018.03;5106278;28;20810;-66
2021/07/11 06:28:57;;;;;;;10.40;7.05;;;;;;;23.18;55.58;95018.75;5102684;28;20536;-67
2021/07/11 06:31:24;;;;;;;14.40;5.95;;;;;;;23.33;55.88;95021.00;5103857;28;20046;-67
2021/07/11 06:33:51;;;;;;;19.48;5.60;;;;;;;23.51;54.04;95018.41;5107060;27;20570;-67
2021/07/11 06:36:18;;;;;;;10.50;6.00;;;;;;;23.71;51.93;95015.16;5107817;27;20092;-67
2021/07/11 06:38:45;;;;;;;7.25;5.78;;;;;;;23.78;51.73;95015.47;5108565;27;20584;-67
2021/07/11 06:41:12;;;;;;;17.35;5.78;;;;;;;23.74;52.01;95003.91;5106012;28;20036;-67
2021/07/11 06:43:39;;;;;;;12.07;4.78;;;;;;;24.02;52.45;95003.66;5108090;27;20055;-67
2021/07/11 06:46:05;;;;;;;18.80;5.65;;;;;;;24.00;51.37;94996.00;5086821;28;20061;-67
2021/07/11 06:48:32;;;;;;;10.93;4.93;;;;;;;24.17;52.33;95005.88;5106812;27;20081;-66
2021/07/11 06:50:59;;;;;;;9.95;5.30;;;;;;;24.28;50.84;95005.56;5106695;27;20453;-67
2021/07/11 06:53:26;;;;;;;11.60;5.35;;;;;;;24.37;50.23;95003.66;5106607;28;20051;-66
2021/07/11 06:55:53;;;;;;;18.35;5.63;;;;;;;24.40;49.43;95014.47;5103850;27;20050;-67
2021/07/11 06:58:20;;;;;;;9.57;5.32;;;;;;;24.45;50.46;94992.22;5106026;27;20047;-67
2021/07/11 07:00:47;;;;;;;9.75;5.55;;;;;;;24.57;50.43;94997.72;5104081;27;20047;-67
2021/07/11 07:03:14;;;;;;;9.10;5.25;;;;;;;24.76;49.75;95005.38;5105806;27;20052;-67
2021/07/11 07:05:41;;;;;;;8.35;4.80;;;;;;;24.81;47.88;95012.41;5108255;27;20047;-67
2021/07/11 07:08:08;;;;;;;8.60;5.43;;;;;;;24.92;47.50;95002.97;5108387;27;20040;-67
2021/07/11 07:10:35;;;;;;;9.60;4.90;;;;;;;24.95;46.60;94985.56;5107147;28;20058;-68
2021/07/11 07:13:02;;;;;;;8.23;4.65;;;;;;;25.12;47.56;95011.38;5108659;27;20039;-67
2021/07/11 07:15:29;;;;;;;5.82;4.60;;;;;;;25.15;45.31;95006.19;5108701;28;20421;-66
2021/07/11 07:17:56;;;;;;;11.85;5.35;;;;;;;25.16;44.10;95001.66;5108905;27;20047;-66
2021/07/11 07:20:27;;;;;;;14.40;5.50;;;;;;;25.15;47.17;95000.06;5108496;27;20048;-67
2021/07/11 07:22:54;;;;;;;7.55;4.60;;;;;;;25.48;46.80;95002.16;5107102;28;20081;-67
2021/07/11 07:25:21;;;;;;;7.20;4.38;;;;;;;25.66;43.39;94998.31;5108265;27;20126;-66
2021/07/11 07:27:48;;;;;;;8.85;4.10;;;;;;;25.63;42.85;95004.28;5108033;27;20050;-67
2021/07/11 07:30:18;;;;;;;12.75;5.32;;;;;;;25.66;44.21;95006.31;5107080;28;20035;-67
2021/07/11 07:32:48;;;;;;;14.20;4.72;;;;;;;25.81;44.85;95014.84;5108032;27;20043;-67
2021/07/11 07:35:20;;;;;;;11.23;4.70;;;;;;;25.88;44.83;95004.44;5107515;27;20039;-67
2021/07/11 07:37:48;;;;;;;5.20;3.55;;;;;;;26.18;39.65;95009.75;5108156;28;20064;-67
2021/07/11 07:40:18;;;;;;;5.88;3.63;;;;;;;26.20;41.68;95005.66;5107237;27;20050;-67
2021/07/11 07:42:46;;;;;;;17.27;4.05;;;;;;;26.15;42.14;95010.41;5108314;28;20081;-67
2021/07/11 07:45:13;;;;;;;6.40;4.00;;;;;;;26.33;38.49;95014.50;5106735;27;20048;-67
2021/07/11 07:47:40;;;;;;;12.48;4.53;;;;;;;26.48;38.17;95016.56;5108349;27;20428;-68
2021/07/11 07:50:10;;;;;;;9.93;3.83;;;;;;;26.59;38.81;95010.81;5107385;27;20046;-67
2021/07/11 07:52:37;;;;;;;6.45;3.72;;;;;;;26.77;37.48;95012.25;5107002;28;20460;-67
2021/07/11 07:55:05;;;;;;;5.93;3.78;;;;;;;26.80;38.49;95016.94;5111327;27;20055;-67
2021/07/11 07:57:32;;;;;;;9.05;3.72;;;;;;;26.83;37.66;95005.59;5108556;27;20032;-66
2021/07/11 07:59:59;;;;;;;17.17;4.78;;;;;;;26.99;37.43;95013.75;5091435;28;20039;-67
2021/07/11 08:02:25;;;;;;;7.90;3.28;;;;;;;26.86;35.47;95010.25;5106265;27;20032;-67
2021/07/11 08:04:52;;;;;;;12.32;3.83;;;;;;;27.00;36.42;95003.84;5107853;28;20099;-67
2021/07/11 08:07:24;;;;;;;6.28;3.22;;;;;;;27.15;38.13;95016.53;5110930;27;20050;-67
2021/07/11 08:09:51;;;;;;;6.63;3.25;;;;;;;27.37;37.07;95011.91;5112558;27;20041;-67
2021/07/11 08:12:18;;;;;;;5.05;2.88;;;;;;;27.52;37.47;95008.59;5112493;27;20040;-67
2021/07/11 08:14:46;;;;;;;5.78;3.30;;;;;;;27.63;35.27;95008.91;5111581;27;20043;-67
2021/07/11 08:17:13;;;;;;;7.00;3.20;;;;;;;27.56;35.05;94998.78;5109163;27;20047;-67
2021/07/11 08:19:39;;;;;;;6.32;3.00;;;;;;;27.67;34.45;95003.69;5107455;28;20057;-67
2021/07/11 08:22:06;;;;;;;5.50;3.33;;;;;;;27.69;34.69;95002.22;5107988;28;20036;-67
2021/07/11 08:24:33;;;;;;;12.07;3.40;;;;;;;27.48;33.22;95001.56;5107639;28;20119;-67
2021/07/11 08:27:00;;;;;;;6.50;3.28;;;;;;;27.50;35.59;94989.44;5107297;28;20043;-67
2021/07/11 08:29:27;;;;;;;7.45;2.65;;;;;;;27.62;32.16;95002.00;5106339;27;20043;-67
2021/07/11 08:31:54;;;;;;;5.75;2.67;;;;;;;27.65;31.50;94986.06;5107426;28;20028;-67
2021/07/11 08:34:21;;;;;;;5.40;3.10;;;;;;;27.92;34.05;94994.53;5107175;28;20087;-66
2021/07/11 08:36:48;;;;;;;6.53;4.07;;;;;;;27.83;34.18;95002.66;5092082;27;20048;-66
2021/07/11 08:39:15;;;;;;;8.93;3.88;;;;;;;27.89;33.55;94995.16;5110170;27;20048;-67
2021/07/11 08:41:42;;;;;;;7.55;3.25;;;;;;;27.82;33.63;94995.75;5110492;27;20497;-67
2021/07/11 08:44:10;;;;;;;4.38;2.85;;;;;;;27.93;31.05;94996.09;5106039;28;20420;-67
2021/07/11 08:46:38;;;;;;;11.85;3.92;;;;;;;27.75;33.73;94970.66;5107109;28;20398;-67
2021/07/11 08:49:06;;;;;;;12.00;4.43;;;;;;;27.99;33.22;94978.66;5108448;28;20051;-67
2021/07/11 08:51:33;;;;;;;7.95;4.03;;;;;;;28.31;35.26;94984.16;5105356;28;20038;-67
2021/07/11 08:54:01;;;;;;;9.38;3.50;;;;;;;28.49;35.04;94973.16;5106556;27;20047;-67
2021/07/11 08:56:28;;;;;;;10.45;3.40;;;;;;;28.76;33.94;94983.09;5104342;28;20039;-67
2021/07/11 08:58:57;;;;;;;17.45;3.03;;;;;;;28.51;33.83;94966.31;5106643;28;20046;-67
2021/07/11 09:01:26;;;;;;;9.75;3.20;;;;;;;28.94;30.99;94985.44;5106452;28;20043;-67
2021/07/11 09:04:03;;;;;;;7.05;3.35;;;;;;;29.15;31.02;94985.22;5106486;28;20053;-67
2021/07/11 09:06:52;;;;;;;5.03;3.17;;;;;;;29.43;31.55;94987.03;5106549;28;20040;-67
2021/07/11 09:09:26;;;;;;;6.25;3.28;;;;;;;29.38;31.30;94980.00;5091468;28;20048;-67
2021/07/11 09:12:03;;;;;;;7.13;3.58;;;;;;;29.06;30.73;94990.72;5106473;28;20031;-67
2021/07/11 09:14:41;;;;;;;5.85;3.05;;;;;;;29.42;31.42;94986.22;5088496;28;20039;-67
2021/07/11 09:17:09;;;;;;;9.13;3.40;;;;;;;29.24;31.30;94980.44;5105376;28;20054;-67
2021/07/11 09:19:48;;;;;;;7.07;3.22;;;;;;;29.57;32.07;94962.41;5105201;28;20035;-67
2021/07/11 09:22:23;;;;;;;19.30;3.50;;;;;;;29.76;31.34;94978.59;5107906;27;20092;-67
2021/07/11 09:25:00;;;;;;;17.42;4.20;;;;;;;30.08;32.10;94967.75;5106266;28;20092;-67
2021/07/11 09:27:32;;;;;;;20.08;3.97;;;;;;;30.27;31.47;94970.47;5105388;27;20039;-67
2021/07/11 09:30:02;;;;;;;8.68;3.47;;;;;;;30.08;31.01;94976.59;5104821;28;20043;-67
2021/07/11 09:32:40;;;;;;;8.20;3.47;;;;;;;30.16;29.72;94974.03;5105827;28;20042;-67
2021/07/11 09:35:22;;;;;;;4.75;3.55;;;;;;;29.56;29.67;94964.31;5106242;28;20432;-67
2021/07/11 09:37:55;;;;;;;3.75;2.90;;;;;;;30.13;31.54;94970.16;5104644;27;20035;-67
2021/07/11 09:40:24;;;;;;;4.97;3.43;;;;;;;30.09;30.03;94974.69;5105916;28;20035;-67
2021/07/11 09:42:55;;;;;;;8.75;3.97;;;;;;;29.97;28.44;94964.09;5104341;28;20035;-67
2021/07/11 09:45:29;;;;;;;5.45;3.38;;;;;;;30.09;29.75;94964.72;5106586;28;20057;-67
2021/07/11 09:48:07;;;;;;;5.82;3.35;;;;;;;30.19;28.74;94952.63;5106043;28;20527;-67
2021/07/11 09:50:34;;;;;;;5.25;3.40;;;;;;;30.16;29.46;94953.38;5104260;28;20040;-67
2021/07/11 09:53:01;;;;;;;7.50;3.45;;;;;;;30.49;30.32;94957.47;5105075;28;20039;-67
2021/07/11 09:55:31;;;;;;;28.00;4.70;;;;;;;30.77;28.61;94956.41;5105382;28;20046;-67
2021/07/11 09:58:02;;;;;;;9.38;3.40;;;;;;;30.62;30.32;94958.06;5104578;28;20444;-67
2021/07/11 10:00:32;;;;;;;8.52;3.75;;;;;;;30.57;28.36;94955.69;5105834;28;20036;-67
2021/07/11 10:03:02;;;;;;;11.70;3.40;;;;;;;30.54;28.31;94959.88;5103947;28;20195;-67
2021/07/11 10:05:30;;;;;;;8.95;3.88;;;;;;;30.72;28.06;94962.06;5104188;28;20131;-67
2021/07/11 10:07:58;;;;;;;9.30;4.32;;;;;;;30.62;26.62;94952.69;5107391;28;20050;-67
2021/07/11 10:10:30;;;;;;;10.73;3.83;;;;;;;30.89;29.20;94950.88;5109838;28;20043;-66
2021/07/11 10:12:58;;;;;;;6.45;3.60;;;;;;;31.16;26.93;94954.41;5109671;27;20028;-67
2021/07/11 10:15:28;;;;;;;7.00;3.88;;;;;;;31.40;26.47;94953.25;5109640;28;20241;-67
2021/07/11 10:18:03;;;;;;;6.55;3.92;;;;;;;31.34;26.49;94943.91;5108750;27;20696;-67
2021/07/11 10:20:41;;;;;;;8.95;3.65;;;;;;;31.15;27.51;94939.44;5109292;28;20047;-67
2021/07/11 10:23:26;;;;;;;8.90;3.50;;;;;;;31.46;27.63;94948.34;5092120;28;20047;-67
2021/07/11 10:25:58;;;;;;;14.52;4.20;;;;;;;31.58;25.11;94937.38;5109495;28;20040;-66
2021/07/11 10:28:29;;;;;;;6.47;3.70;;;;;;;31.57;26.04;94945.84;5108794;28;20057;-66
2021/07/11 10:30:56;;;;;;;4.35;3.22;;;;;;;32.14;24.90;94930.44;5109422;27;20417;-67
2021/07/11 10:33:25;;;;;;;5.72;3.65;;;;;;;32.07;27.36;94938.44;5108377;27;20415;-67
2021/07/11 10:35:52;;;;;;;8.07;3.00;;;;;;;31.79;25.06;94931.50;5108687;27;20040;-67
2021/07/11 10:38:39;;;;;;;5.70;3.45;;;;;;;32.13;27.39;94934.25;5109272;27;20055;-67
2021/07/11 10:41:09;;;;;;;4.75;3.78;;;;;;;32.06;27.35;94936.88;5111159;27;20054;-66
2021/07/11 10:43:36;;;;;;;4.63;3.72;;;;;;;32.09;26.80;94928.06;5109252;28;20080;-67
2021/07/11 10:46:03;;;;;;;5.70;3.45;;;;;;;32.05;25.80;94916.47;5109408;28;20473;-67
2021/07/11 10:48:30;;;;;;;4.25;3.75;;;;;;;32.36;26.12;94930.69;5109163;28;20048;-67
2021/07/11 10:50:58;;;;;;;8.10;3.15;;;;;;;32.49;26.78;94921.19;5106537;27;20039;-67
2021/07/11 10:53:33;;;;;;;5.65;3.13;;;;;;;32.49;21.90;94926.56;5110649;27;20062;-66
2021/07/11 10:56:00;;;;;;;5.03;3.63;;;;;;;32.24;22.98;94922.84;5108989;28;20688;-67
2021/07/11 10:58:37;;;;;;;5.05;3.00;;;;;;;32.17;23.05;94904.66;5109051;27;20093;-66
2021/07/11 11:01:18;;;;;;;8.98;3.85;;;;;;;32.06;25.41;94918.03;5111939;27;20051;-68
2021/07/11 11:03:48;;;;;;;5.78;3.55;;;;;;;32.45;24.38;94912.28;5109286;28;20039;-68
2021/07/11 11:06:18;;;;;;;8.18;3.88;;;;;;;32.82;25.03;94913.44;5109097;27;20054;-68
2021/07/11 11:08:47;;;;;;;4.72;3.42;;;;;;;33.16;25.80;94916.81;5090755;28;20053;-68
2021/07/11 11:11:15;;;;;;;3.53;3.22;;;;;;;32.84;22.96;94911.91;5108527;27;20493;-68
2021/07/11 11:13:42;;;;;;;6.25;3.63;;;;;;;33.59;25.35;94902.81;5089717;28;20043;-66
2021/07/11 11:16:15;;;;;;;9.63;3.47;;;;;;;33.60;24.57;94894.34;5109120;28;20075;-68
2021/07/11 11:18:43;;;;;;;5.60;3.50;;;;;;;34.08;25.72;94894.19;5106691;28;20104;-66
2021/07/11 11:21:19;;;;;;;4.05;3.35;;;;;;;34.30;22.42;94888.88;5108758;28;20754;-68
2021/07/11 11:23:46;;;;;;;6.70;3.42;;;;;;;33.41;22.26;94895.38;5108519;28;20767;-67
2021/07/11 11:26:27;;;;;;;4.72;3.28;;;;;;;33.58;24.35;94876.97;5108677;28;20036;-67
2021/07/11 11:28:57;;;;;;;6.85;3.28;;;;;;;33.92;23.47;94877.53;5107906;28;20073;-67
2021/07/11 11:31:32;;;;;;;8.80;3.30;;;;;;;34.66;25.55;94878.91;5090335;28;20531;-67
2021/07/11 11:34:07;;;;;;;6.60;4.55;;;;;;;34.50;23.47;94869.59;5109005;27;20043;-68
2021/07/11 11:36:51;;;;;;;4.90;4.07;;;;;;;34.34;23.71;94876.16;5110204;27;20041;-67
2021/07/11 11:39:26;;;;;;;7.38;3.90;;;;;;;34.52;24.01;94872.69;5108325;27;20117;-66
2021/07/11 11:41:54;;;;;;;5.25;3.20;;;;;;;34.56;23.72;94862.66;5107097;28;20038;-68
2021/07/11 11:44:23;;;;;;;7.82;3.65;;;;;;;34.21;22.40;94872.25;5108035;28;20054;-67